createdAt,value
2022-12-31T00:00:17.568Z,100046.83
2022-12-31T00:05:40.918Z,100027.60
2022-12-31T00:10:44.365Z,100011.90
2022-12-31T00:15:47.690Z,99994.88
2022-12-31T00:20:51.033Z,99987.06
2022-12-31T00:25:54.320Z,99983.02
2022-12-31T00:30:58.251Z,99989.81
2022-12-31T00:36:13.487Z,99986.20
2022-12-31T00:41:18.567Z,99975.99
2022-12-31T00:46:22.876Z,99955.05
2022-12-31T00:51:28.019Z,99943.42
2022-12-31T00:56:32.521Z,99932.17
2022-12-31T01:01:39.074Z,99930.36
2022-12-31T01:06:43.884Z,99929.70
2022-12-31T01:11:47.229Z,99945.39
2022-12-31T01:16:53.326Z,99928.85
2022-12-31T01:21:57.438Z,99920.68
2022-12-31T01:27:01.009Z,99912.58
2022-12-31T01:32:04.460Z,99909.98
2022-12-31T01:37:08.091Z,99910.10
2022-12-31T01:42:12.590Z,99895.14
2022-12-31T01:47:20.878Z,99877.36
2022-12-31T01:52:40.635Z,99875.33
2022-12-31T01:57:46.621Z,99878.91
2022-12-31T02:02:50.641Z,99880.85
2022-12-31T02:07:55.217Z,99873.45
2022-12-31T02:12:59.304Z,99886.30
2022-12-31T02:18:43.044Z,99899.45
2022-12-31T02:24:16.440Z,99894.83
2022-12-31T02:29:49.022Z,99884.92
2022-12-31T02:34:57.894Z,99877.98
2022-12-31T02:40:02.214Z,99881.44
2022-12-31T02:45:07.487Z,99876.42
2022-12-31T02:50:37.545Z,99874.81
2022-12-31T02:55:49.837Z,99869.00
2022-12-31T03:01:16.916Z,99878.16
2022-12-31T03:06:20.291Z,99867.09
2022-12-31T03:11:42.289Z,99857.34
2022-12-31T03:16:45.679Z,99855.85
2022-12-31T03:22:07.585Z,99843.30
2022-12-31T03:27:10.822Z,99847.17
2022-12-31T03:32:14.086Z,99851.25
2022-12-31T03:37:17.388Z,99853.00
2022-12-31T03:42:20.750Z,99854.73
2022-12-31T03:47:24.840Z,99841.27
2022-12-31T03:52:28.344Z,99837.35
2022-12-31T03:57:32.158Z,99836.34
2022-12-31T04:02:35.443Z,99837.04
2022-12-31T04:07:39.119Z,99830.85
2022-12-31T04:12:43.452Z,99837.33
2022-12-31T04:17:47.747Z,99844.12
2022-12-31T04:22:51.764Z,99836.89
2022-12-31T04:27:55.002Z,99825.83
2022-12-31T04:32:58.275Z,99821.62
2022-12-31T04:38:01.489Z,99836.05
2022-12-31T04:43:04.952Z,99836.67
2022-12-31T04:48:08.240Z,99844.70
2022-12-31T04:53:11.472Z,99842.99
2022-12-31T04:58:15.372Z,99844.40
2022-12-31T05:03:19.456Z,99836.85
2022-12-31T05:08:23.805Z,99827.98
2022-12-31T05:13:32.961Z,99828.63
2022-12-31T05:18:37.548Z,99837.14
2022-12-31T05:23:41.307Z,99843.52
2022-12-31T05:28:45.026Z,99849.44
2022-12-31T05:33:48.490Z,99847.34
2022-12-31T05:38:51.766Z,99855.50
2022-12-31T05:43:55.096Z,99847.40
2022-12-31T05:48:59.496Z,99850.86
2022-12-31T05:54:02.742Z,99850.70
2022-12-31T05:59:06.018Z,99848.86
2022-12-31T06:04:09.318Z,99842.66
2022-12-31T06:09:12.655Z,99846.48
2022-12-31T06:14:16.575Z,99856.16
2022-12-31T06:19:20.013Z,99858.25
2022-12-31T06:24:23.654Z,99849.05
2022-12-31T06:29:26.898Z,99852.42
2022-12-31T06:34:30.266Z,99850.09
2022-12-31T06:39:33.577Z,99850.31
2022-12-31T06:44:37.002Z,99854.71
2022-12-31T06:49:41.230Z,99870.47
2022-12-31T06:54:44.759Z,99881.45
2022-12-31T06:59:48.422Z,99876.39
2022-12-31T07:05:16.440Z,99881.52
2022-12-31T07:10:54.111Z,99893.71
2022-12-31T07:16:37.845Z,99897.83
2022-12-31T07:21:41.935Z,99899.16
2022-12-31T07:27:00.110Z,99902.59
2022-12-31T07:32:28.072Z,99905.11
2022-12-31T07:37:43.816Z,99908.50
2022-12-31T07:43:06.558Z,99906.53
2022-12-31T07:48:22.913Z,99923.77
2022-12-31T07:53:27.537Z,99929.47
2022-12-31T07:58:40.005Z,99925.66
2022-12-31T08:03:52.413Z,99922.15
2022-12-31T08:08:59.817Z,99924.41
2022-12-31T08:14:09.282Z,99929.81
2022-12-31T08:19:26.010Z,99937.32
2022-12-31T08:24:41.514Z,99930.92
2022-12-31T08:29:55.864Z,99929.47
2022-12-31T08:35:18.544Z,99935.05
2022-12-31T08:40:38.831Z,99946.95
2022-12-31T08:45:53.749Z,99951.97
2022-12-31T08:50:57.501Z,99959.45
2022-12-31T08:56:43.746Z,99952.71
2022-12-31T09:02:01.428Z,99956.05
2022-12-31T09:07:05.951Z,99945.82
2022-12-31T09:12:28.214Z,99938.36
2022-12-31T09:17:37.451Z,99947.52
2022-12-31T09:22:40.881Z,99943.71
2022-12-31T09:28:24.666Z,99933.48
2022-12-31T09:34:08.273Z,99935.27
2022-12-31T09:39:24.764Z,99935.59
2022-12-31T09:45:02.416Z,99921.91
2022-12-31T09:50:16.320Z,99907.76
2022-12-31T09:55:40.337Z,99906.76
2022-12-31T10:00:45.507Z,99906.34
2022-12-31T10:05:55.129Z,99893.45
2022-12-31T10:11:07.303Z,99886.83
2022-12-31T10:16:23.949Z,99872.45
2022-12-31T10:21:31.856Z,99864.21
2022-12-31T10:27:17.050Z,99849.41
2022-12-31T10:32:34.719Z,99835.73
2022-12-31T10:37:58.719Z,99828.98
2022-12-31T10:43:21.175Z,99823.55
2022-12-31T10:48:49.020Z,99819.84
2022-12-31T10:54:31.175Z,99816.89
2022-12-31T11:00:00.770Z,99812.39
2022-12-31T11:05:38.732Z,99808.46
2022-12-31T11:11:20.055Z,99795.89
2022-12-31T11:16:38.970Z,99783.77
2022-12-31T11:22:00.552Z,99777.90
2022-12-31T11:27:28.637Z,99770.29
2022-12-31T11:33:06.416Z,99748.16
2022-12-31T11:38:10.974Z,99737.59
2022-12-31T11:43:37.986Z,99737.30
2022-12-31T11:48:46.846Z,99726.98
2022-12-31T11:54:01.540Z,99722.05
2022-12-31T11:59:18.680Z,99723.30
2022-12-31T12:04:23.505Z,99723.92
2022-12-31T12:09:32.597Z,99704.05
2022-12-31T12:14:39.144Z,99688.13
2022-12-31T12:19:55.173Z,99690.16
2022-12-31T12:25:08.457Z,99702.79
2022-12-31T12:30:20.109Z,99694.48
2022-12-31T12:35:36.021Z,99683.76
2022-12-31T12:40:40.165Z,99673.78
2022-12-31T12:45:51.649Z,99670.11
2022-12-31T12:50:56.593Z,99670.39
2022-12-31T12:56:11.647Z,99665.48
2022-12-31T13:01:41.569Z,99662.51
2022-12-31T13:06:48.790Z,99650.14
2022-12-31T13:12:07.322Z,99639.81
2022-12-31T13:17:41.198Z,99640.93
2022-12-31T13:22:52.871Z,99645.16
2022-12-31T13:28:01.258Z,99633.08
2022-12-31T13:33:17.496Z,99628.81
2022-12-31T13:38:28.764Z,99638.11
2022-12-31T13:43:35.558Z,99659.88
2022-12-31T13:49:13.487Z,99669.17
2022-12-31T13:54:34.485Z,99660.63
2022-12-31T13:59:45.068Z,99662.33
2022-12-31T14:04:53.725Z,99670.77
2022-12-31T14:09:59.161Z,99679.84
2022-12-31T14:15:18.686Z,99680.25
2022-12-31T14:20:30.598Z,99671.44
2022-12-31T14:25:42.962Z,99670.98
2022-12-31T14:30:50.576Z,99681.98
2022-12-31T14:36:08.267Z,99685.73
2022-12-31T14:41:38.621Z,99688.23
2022-12-31T14:47:18.394Z,99675.63
2022-12-31T14:52:34.823Z,99658.88
2022-12-31T14:58:17.240Z,99665.55
2022-12-31T15:03:07.037Z,99674.48
2022-12-31T15:08:28.895Z,99673.88
2022-12-31T15:14:06.857Z,99681.27
2022-12-31T15:19:19.239Z,99676.30
2022-12-31T15:24:30.819Z,99661.26
2022-12-31T15:29:36.712Z,99671.21
2022-12-31T15:34:40.117Z,99671.27
2022-12-31T15:39:45.371Z,99672.88
2022-12-31T15:44:52.482Z,99683.73
2022-12-31T15:49:57.222Z,99692.13
2022-12-31T15:55:04.522Z,99697.03
2022-12-31T16:00:18.081Z,99696.34
2022-12-31T16:05:26.234Z,99695.14
2022-12-31T16:10:32.602Z,99696.38
2022-12-31T16:15:37.170Z,99703.16
2022-12-31T16:20:44.220Z,99710.81
2022-12-31T16:25:49.738Z,99712.59
2022-12-31T16:31:17.332Z,99695.92
2022-12-31T16:36:23.923Z,99682.39
2022-12-31T16:41:27.217Z,99692.66
2022-12-31T16:46:33.395Z,99703.27
2022-12-31T16:51:38.691Z,99700.30
2022-12-31T16:56:43.304Z,99707.26
2022-12-31T17:01:47.299Z,99720.99
2022-12-31T17:06:50.681Z,99723.94
2022-12-31T17:12:20.589Z,99731.59
2022-12-31T17:17:30.332Z,99723.08
2022-12-31T17:22:37.209Z,99735.27
2022-12-31T17:27:52.037Z,99743.98
2022-12-31T17:33:24.659Z,99736.90
2022-12-31T17:38:36.367Z,99737.26
2022-12-31T17:43:40.786Z,99745.92
2022-12-31T17:48:46.481Z,99751.23
2022-12-31T17:53:50.244Z,99761.59
2022-12-31T17:58:54.729Z,99766.10
2022-12-31T18:03:58.128Z,99761.10
2022-12-31T18:09:01.672Z,99760.10
2022-12-31T18:14:05.373Z,99767.10
2022-12-31T18:19:37.675Z,99771.83
2022-12-31T18:24:38.548Z,99778.80
2022-12-31T18:29:41.814Z,99798.09
2022-12-31T18:34:45.403Z,99780.53
2022-12-31T18:39:48.716Z,99763.49
2022-12-31T18:44:52.173Z,99749.73
2022-12-31T18:49:55.767Z,99753.67
2022-12-31T18:54:59.154Z,99757.08
2022-12-31T19:00:03.081Z,99767.42
2022-12-31T19:05:21.735Z,99768.89
2022-12-31T19:10:26.533Z,99774.16
2022-12-31T19:15:34.593Z,99772.17
2022-12-31T19:20:42.917Z,99778.84
2022-12-31T19:25:48.922Z,99781.01
2022-12-31T19:30:53.869Z,99787.18
2022-12-31T19:35:57.166Z,99791.67
2022-12-31T19:41:01.822Z,99790.98
2022-12-31T19:46:05.365Z,99787.34
2022-12-31T19:51:17.084Z,99786.14
2022-12-31T19:56:20.779Z,99787.23
2022-12-31T20:01:25.495Z,99784.33
2022-12-31T20:06:29.167Z,99775.52
2022-12-31T20:11:32.521Z,99783.71
2022-12-31T20:16:36.045Z,99786.87
2022-12-31T20:21:39.569Z,99778.96
2022-12-31T20:26:42.811Z,99786.85
2022-12-31T20:31:46.215Z,99777.56
2022-12-31T20:36:49.847Z,99773.11
2022-12-31T20:41:53.195Z,99777.36
2022-12-31T20:46:56.540Z,99771.15
2022-12-31T20:51:59.827Z,99758.35
2022-12-31T20:57:03.490Z,99761.87
2022-12-31T21:02:29.524Z,99751.63
2022-12-31T21:07:30.483Z,99750.08
2022-12-31T21:12:46.751Z,99748.32
2022-12-31T21:17:50.161Z,99742.71
2022-12-31T21:22:53.491Z,99733.81
2022-12-31T21:27:56.894Z,99743.00
2022-12-31T21:33:00.855Z,99749.75
2022-12-31T21:38:06.315Z,99757.75
2022-12-31T21:43:10.301Z,99763.38
2022-12-31T21:48:21.634Z,99758.19
2022-12-31T21:53:32.266Z,99747.77
2022-12-31T21:58:42.378Z,99734.59
2022-12-31T22:03:46.269Z,99733.61
2022-12-31T22:08:52.829Z,99748.42
2022-12-31T22:13:56.597Z,99748.23
2022-12-31T22:18:59.941Z,99757.09
2022-12-31T22:24:03.444Z,99762.98
2022-12-31T22:29:06.828Z,99762.14
2022-12-31T22:34:10.183Z,99770.14
2022-12-31T22:39:44.099Z,99774.84
2022-12-31T22:44:40.635Z,99758.51
2022-12-31T22:49:43.908Z,99756.10
2022-12-31T22:54:47.234Z,99745.84
2022-12-31T22:59:51.751Z,99740.78
2022-12-31T23:05:16.208Z,99741.13
2022-12-31T23:10:38.119Z,99751.94
2022-12-31T23:16:04.052Z,99760.86
2022-12-31T23:21:29.316Z,99769.45
2022-12-31T23:26:32.703Z,99762.74
2022-12-31T23:31:37.040Z,99754.48
2022-12-31T23:36:40.316Z,99754.91
2022-12-31T23:41:43.865Z,99750.29
2022-12-31T23:46:47.904Z,99749.64
2022-12-31T23:51:51.165Z,99748.64
2022-12-31T23:56:57.582Z,99758.41
